createdAt,value
2017-07-24T00:00:12.441Z,0
2017-07-24T00:01:13.144Z,0
2017-07-24T00:02:13.846Z,0
2017-07-24T00:03:14.547Z,0
2017-07-24T00:04:15.250Z,0
2017-07-24T00:05:15.950Z,0
2017-07-24T00:06:16.650Z,0
2017-07-24T00:07:17.351Z,0
2017-07-24T00:08:18.050Z,0
2017-07-24T00:09:18.749Z,0
2017-07-24T00:10:19.699Z,0
2017-07-24T00:11:20.400Z,0
2017-07-24T00:12:21.104Z,0
2017-07-24T00:13:21.805Z,0
2017-07-24T00:14:22.507Z,0
2017-07-24T00:15:23.457Z,0
2017-07-24T00:16:24.156Z,0
2017-07-24T00:17:24.855Z,0
2017-07-24T00:18:25.562Z,0
2017-07-24T00:19:26.272Z,0
2017-07-24T00:20:27.221Z,0
2017-07-24T00:21:27.923Z,0
2017-07-24T00:22:28.621Z,0
2017-07-24T00:23:29.324Z,0
2017-07-24T00:24:30.023Z,0
2017-07-24T00:25:30.970Z,0
2017-07-24T00:26:31.668Z,0
2017-07-24T00:27:32.370Z,0
2017-07-24T00:28:33.073Z,0
2017-07-24T00:29:33.770Z,0
2017-07-24T00:30:34.719Z,0
2017-07-24T00:31:35.418Z,0
2017-07-24T00:32:36.118Z,0
2017-07-24T00:33:36.821Z,0
2017-07-24T00:34:37.522Z,0
2017-07-24T00:35:38.468Z,0
2017-07-24T00:36:39.167Z,0
2017-07-24T00:37:39.870Z,0
2017-07-24T00:38:40.570Z,0
2017-07-24T00:39:41.272Z,0
2017-07-24T00:40:42.225Z,0
2017-07-24T00:41:42.921Z,0
2017-07-24T00:42:43.620Z,0
2017-07-24T00:43:44.325Z,0
2017-07-24T00:44:45.026Z,0
2017-07-24T00:45:45.976Z,0
2017-07-24T00:46:46.674Z,0
2017-07-24T00:47:47.381Z,0
2017-07-24T00:48:48.080Z,0
2017-07-24T00:49:48.782Z,0
2017-07-24T00:50:49.732Z,0
2017-07-24T00:51:50.429Z,0
2017-07-24T00:52:51.128Z,0
2017-07-24T00:53:51.829Z,0
2017-07-24T00:54:52.525Z,0
2017-07-24T00:55:53.481Z,0
2017-07-24T00:56:54.183Z,0
2017-07-24T00:57:54.888Z,0
2017-07-24T00:58:55.588Z,0
2017-07-24T00:59:56.284Z,0
2017-07-24T01:00:57.234Z,0
2017-07-24T01:01:57.932Z,0
2017-07-24T01:02:58.636Z,0
2017-07-24T01:03:59.346Z,0
2017-07-24T01:05:00.043Z,0
2017-07-24T01:06:00.997Z,0
2017-07-24T01:07:01.694Z,0
2017-07-24T01:08:02.393Z,0
2017-07-24T01:09:03.096Z,0
2017-07-24T01:10:03.799Z,0
2017-07-24T01:11:04.751Z,0
2017-07-24T01:12:05.459Z,0
2017-07-24T01:13:06.165Z,0
2017-07-24T01:14:06.869Z,0
2017-07-24T01:15:07.573Z,0
2017-07-24T01:16:08.524Z,0
2017-07-24T01:17:09.226Z,0
2017-07-24T01:18:09.928Z,0
2017-07-24T01:19:10.627Z,0
2017-07-24T01:20:11.327Z,0
2017-07-24T01:21:12.280Z,0
2017-07-24T01:22:12.981Z,0
2017-07-24T01:23:13.684Z,0
2017-07-24T01:24:14.394Z,0
2017-07-24T01:25:15.096Z,0
2017-07-24T01:26:16.047Z,0
2017-07-24T01:27:16.749Z,0
2017-07-24T01:28:17.447Z,0
2017-07-24T01:29:18.145Z,0
2017-07-24T01:30:18.847Z,0
2017-07-24T01:31:19.797Z,0
2017-07-24T01:32:20.499Z,0
2017-07-24T01:33:21.194Z,0
2017-07-24T01:34:21.894Z,0
2017-07-24T01:35:22.595Z,0
2017-07-24T01:36:23.314Z,0
2017-07-24T01:37:24.020Z,0
2017-07-24T01:38:24.719Z,0
2017-07-24T01:39:25.418Z,0
2017-07-24T01:40:26.121Z,0
2017-07-24T01:41:27.070Z,0
2017-07-24T01:42:27.777Z,0
2017-07-24T01:43:28.479Z,0
2017-07-24T01:44:29.180Z,0
2017-07-24T01:45:29.883Z,0
2017-07-24T01:46:30.836Z,0
2017-07-24T01:47:31.531Z,0
2017-07-24T01:48:32.228Z,0
2017-07-24T01:49:32.940Z,0
2017-07-24T01:50:33.645Z,0
2017-07-24T01:51:34.597Z,0
2017-07-24T01:52:35.295Z,0
2017-07-24T01:53:35.993Z,0
2017-07-24T01:54:36.693Z,0
2017-07-24T01:55:37.395Z,0
2017-07-24T01:56:38.345Z,0
2017-07-24T01:57:39.055Z,0
2017-07-24T01:58:39.758Z,0
2017-07-24T01:59:40.463Z,0
2017-07-24T02:00:41.164Z,0
2017-07-24T02:01:41.862Z,0
2017-07-24T02:02:42.564Z,0
2017-07-24T02:03:43.262Z,0
2017-07-24T02:04:43.960Z,0
2017-07-24T02:05:44.659Z,0
2017-07-24T02:06:45.608Z,0
2017-07-24T02:07:46.307Z,0
2017-07-24T02:08:47.007Z,0
2017-07-24T02:09:47.708Z,0
2017-07-24T02:10:48.413Z,0
2017-07-24T02:11:49.364Z,0
2017-07-24T02:12:50.063Z,0
2017-07-24T02:13:50.764Z,0
2017-07-24T02:14:51.465Z,0
2017-07-24T02:15:52.165Z,0
2017-07-24T02:16:53.115Z,0
2017-07-24T02:17:53.815Z,0
2017-07-24T02:18:54.517Z,0
2017-07-24T02:19:55.217Z,0
2017-07-24T02:20:55.914Z,0
2017-07-24T02:21:56.863Z,0
2017-07-24T02:22:57.562Z,0
2017-07-24T02:23:58.264Z,0
2017-07-24T02:24:58.962Z,0
2017-07-24T02:25:59.660Z,0
2017-07-24T02:27:00.609Z,0
2017-07-24T02:28:01.307Z,0
2017-07-24T02:29:02.008Z,0
2017-07-24T02:30:02.712Z,0
2017-07-24T02:31:03.417Z,0
2017-07-24T02:32:04.369Z,0
2017-07-24T02:33:05.072Z,0
2017-07-24T02:34:05.774Z,0
2017-07-24T02:35:06.472Z,0
2017-07-24T02:36:07.181Z,0
2017-07-24T02:37:08.133Z,0
2017-07-24T02:38:08.834Z,0
2017-07-24T02:39:09.533Z,0
2017-07-24T02:40:10.232Z,0
2017-07-24T02:41:10.929Z,0
2017-07-24T02:42:11.881Z,0
2017-07-24T02:43:12.583Z,0
2017-07-24T02:44:13.285Z,0
2017-07-24T02:45:13.984Z,0
2017-07-24T02:46:14.691Z,0
2017-07-24T02:47:15.641Z,0
2017-07-24T02:48:16.341Z,0
2017-07-24T02:49:17.041Z,0
2017-07-24T02:50:17.738Z,0
2017-07-24T02:51:18.439Z,0
2017-07-24T02:52:19.396Z,0
2017-07-24T02:53:20.101Z,0
2017-07-24T02:54:20.804Z,0
2017-07-24T02:55:21.505Z,0
2017-07-24T02:56:22.204Z,0
2017-07-24T02:57:22.900Z,0
2017-07-24T02:58:23.594Z,0
2017-07-24T02:59:24.291Z,0
2017-07-24T03:00:24.993Z,0
2017-07-24T03:01:25.696Z,0
2017-07-24T03:02:26.652Z,0
2017-07-24T03:03:27.360Z,0
2017-07-24T03:04:28.060Z,0
2017-07-24T03:05:28.766Z,0
2017-07-24T03:06:29.461Z,0
2017-07-24T03:07:30.159Z,0
2017-07-24T03:08:30.860Z,0
2017-07-24T03:09:31.561Z,0
2017-07-24T03:10:32.259Z,0
2017-07-24T03:11:32.961Z,0
2017-07-24T03:12:33.921Z,0
2017-07-24T03:13:34.621Z,0
2017-07-24T03:14:35.327Z,0
2017-07-24T03:15:36.026Z,0
2017-07-24T03:16:36.722Z,0
2017-07-24T03:17:37.665Z,0
2017-07-24T03:18:38.372Z,0
2017-07-24T03:19:39.070Z,0
2017-07-24T03:20:39.770Z,0
2017-07-24T03:21:40.471Z,0
2017-07-24T03:22:41.422Z,0
2017-07-24T03:23:42.125Z,0
2017-07-24T03:24:42.826Z,0
2017-07-24T03:25:43.529Z,0
2017-07-24T03:26:44.229Z,0
2017-07-24T03:27:45.185Z,0
2017-07-24T03:28:45.885Z,0
2017-07-24T03:29:46.587Z,0
2017-07-24T03:30:47.293Z,0
2017-07-24T03:31:47.996Z,0
2017-07-24T03:32:48.744Z,0
2017-07-24T03:33:49.443Z,0
2017-07-24T03:34:50.146Z,0
2017-07-24T03:35:50.853Z,0
2017-07-24T03:36:51.553Z,0
2017-07-24T03:37:52.511Z,0
2017-07-24T03:38:53.213Z,0
2017-07-24T03:39:53.916Z,0
2017-07-24T03:40:54.617Z,0
2017-07-24T03:41:55.317Z,0
2017-07-24T03:42:56.265Z,0
2017-07-24T03:43:56.968Z,0
2017-07-24T03:44:57.672Z,0
2017-07-24T03:45:58.375Z,0
2017-07-24T03:46:59.073Z,0
2017-07-24T03:48:00.023Z,0
2017-07-24T03:49:00.725Z,5
2017-07-24T03:50:01.427Z,5
2017-07-24T03:51:02.128Z,5
2017-07-24T03:52:02.837Z,5
2017-07-24T03:53:03.789Z,5
2017-07-24T03:54:04.488Z,5
2017-07-24T03:55:05.190Z,5
2017-07-24T03:56:05.892Z,10
2017-07-24T03:57:06.594Z,10
2017-07-24T03:58:07.560Z,10
2017-07-24T03:59:08.264Z,10
2017-07-24T04:00:08.965Z,10
2017-07-24T04:01:09.666Z,10
2017-07-24T04:02:10.368Z,10
2017-07-24T04:03:11.319Z,10
2017-07-24T04:04:12.020Z,15
2017-07-24T04:05:12.723Z,15
2017-07-24T04:06:13.426Z,15
2017-07-24T04:07:14.128Z,15
2017-07-24T04:08:14.832Z,15
2017-07-24T04:09:15.541Z,15
2017-07-24T04:10:16.243Z,20
2017-07-24T04:11:16.944Z,20
2017-07-24T04:12:17.646Z,20
2017-07-24T04:13:18.359Z,20
2017-07-24T04:14:19.071Z,20
2017-07-24T04:15:19.773Z,25
2017-07-24T04:16:20.472Z,25
2017-07-24T04:17:21.175Z,25
2017-07-24T04:18:22.133Z,30
2017-07-24T04:19:22.838Z,30
2017-07-24T04:20:23.540Z,30
2017-07-24T04:21:24.244Z,30
2017-07-24T04:22:24.943Z,30
2017-07-24T04:23:25.896Z,30
2017-07-24T04:24:26.597Z,30
2017-07-24T04:25:27.301Z,35
2017-07-24T04:26:28.002Z,35
2017-07-24T04:27:28.704Z,35
2017-07-24T04:28:29.657Z,35
2017-07-24T04:29:30.361Z,35
2017-07-24T04:30:31.063Z,35
2017-07-24T04:31:31.764Z,35
2017-07-24T04:32:32.462Z,40
2017-07-24T04:33:33.416Z,40
2017-07-24T04:34:34.123Z,40
2017-07-24T04:35:34.825Z,40
2017-07-24T04:36:35.528Z,40
2017-07-24T04:37:36.236Z,40
2017-07-24T04:38:36.945Z,40
2017-07-24T04:39:37.649Z,35
2017-07-24T04:40:38.352Z,45
2017-07-24T04:41:39.054Z,45
2017-07-24T04:42:39.763Z,45
2017-07-24T04:43:40.719Z,45
2017-07-24T04:44:41.426Z,45
2017-07-24T04:45:42.134Z,45
2017-07-24T04:46:42.839Z,45
2017-07-24T04:47:43.540Z,45
2017-07-24T04:48:44.490Z,45
2017-07-24T04:49:45.195Z,45
2017-07-24T04:50:45.896Z,45
2017-07-24T04:51:46.609Z,45
2017-07-24T04:52:47.310Z,45
2017-07-24T04:53:48.265Z,45
2017-07-24T04:54:48.971Z,50
2017-07-24T04:55:49.671Z,55
2017-07-24T04:56:50.373Z,50
2017-07-24T04:57:51.073Z,50
2017-07-24T04:58:52.021Z,50
2017-07-24T04:59:52.721Z,50
2017-07-24T05:00:53.428Z,50
2017-07-24T05:01:54.134Z,55
2017-07-24T05:02:54.848Z,60
2017-07-24T05:03:55.801Z,65
2017-07-24T05:04:56.504Z,70
2017-07-24T05:05:57.220Z,75
2017-07-24T05:06:57.921Z,75
2017-07-24T05:07:58.625Z,75
2017-07-24T05:08:59.576Z,75
2017-07-24T05:10:00.277Z,80
2017-07-24T05:11:00.980Z,90
2017-07-24T05:12:01.680Z,95
2017-07-24T05:13:02.385Z,100
2017-07-24T05:14:03.341Z,100
2017-07-24T05:15:04.043Z,95
2017-07-24T05:16:04.746Z,85
2017-07-24T05:17:05.455Z,90
2017-07-24T05:18:06.159Z,90
2017-07-24T05:19:06.868Z,85
2017-07-24T05:20:07.573Z,85
2017-07-24T05:21:08.283Z,90
2017-07-24T05:22:08.985Z,90
2017-07-24T05:23:09.688Z,85
2017-07-24T05:24:10.655Z,80
2017-07-24T05:25:11.362Z,80
2017-07-24T05:26:12.069Z,85
2017-07-24T05:27:12.775Z,90
2017-07-24T05:28:13.480Z,90
2017-07-24T05:29:14.433Z,90
2017-07-24T05:30:15.137Z,85
2017-07-24T05:31:15.842Z,85
2017-07-24T05:32:16.547Z,85
2017-07-24T05:33:17.254Z,90
2017-07-24T05:34:18.210Z,90
2017-07-24T05:35:18.922Z,90
2017-07-24T05:36:19.633Z,95
2017-07-24T05:37:20.337Z,95
2017-07-24T05:38:21.041Z,95
2017-07-24T05:39:21.998Z,95
2017-07-24T05:40:22.710Z,100
2017-07-24T05:41:23.413Z,110
2017-07-24T05:42:24.116Z,120
2017-07-24T05:43:24.819Z,130
2017-07-24T05:44:25.774Z,135
2017-07-24T05:45:26.482Z,135
2017-07-24T05:46:27.183Z,135
2017-07-24T05:47:27.893Z,145
2017-07-24T05:48:28.594Z,145
2017-07-24T05:49:29.547Z,145
2017-07-24T05:50:30.248Z,140
2017-07-24T05:51:30.949Z,135
2017-07-24T05:52:31.654Z,135
2017-07-24T05:53:32.358Z,140
2017-07-24T05:54:33.310Z,135
2017-07-24T05:55:34.017Z,135
2017-07-24T05:56:34.724Z,135
2017-07-24T05:57:35.433Z,125
2017-07-24T05:58:36.138Z,135
2017-07-24T05:59:37.090Z,135
2017-07-24T06:00:37.798Z,140
2017-07-24T06:01:38.501Z,135
2017-07-24T06:02:39.206Z,135
2017-07-24T06:03:39.913Z,135
2017-07-24T06:04:40.869Z,125
2017-07-24T06:05:41.570Z,120
2017-07-24T06:06:42.277Z,120
2017-07-24T06:07:42.984Z,115
2017-07-24T06:08:43.693Z,110
2017-07-24T06:09:44.399Z,110
2017-07-24T06:10:45.108Z,110
2017-07-24T06:11:45.820Z,110
2017-07-24T06:12:46.533Z,115
2017-07-24T06:13:47.242Z,115
2017-07-24T06:14:48.196Z,115
2017-07-24T06:15:48.898Z,120
2017-07-24T06:16:49.599Z,120
2017-07-24T06:17:50.306Z,115
2017-07-24T06:18:51.013Z,110
2017-07-24T06:19:51.967Z,105
2017-07-24T06:20:52.678Z,95
2017-07-24T06:21:53.386Z,85
2017-07-24T06:22:54.092Z,90
2017-07-24T06:23:54.794Z,90
2017-07-24T06:24:55.753Z,80
2017-07-24T06:25:56.456Z,75
2017-07-24T06:26:57.166Z,70
2017-07-24T06:27:57.880Z,65
2017-07-24T06:28:58.580Z,70
2017-07-24T06:29:59.280Z,70
2017-07-24T06:30:59.983Z,75
2017-07-24T06:32:00.684Z,85
2017-07-24T06:33:01.388Z,95
2017-07-24T06:34:02.089Z,105
2017-07-24T06:35:02.798Z,110
2017-07-24T06:36:03.497Z,120
2017-07-24T06:37:04.201Z,115
2017-07-24T06:38:04.918Z,110
2017-07-24T06:39:05.622Z,110
2017-07-24T06:40:06.576Z,105
2017-07-24T06:41:07.284Z,100
2017-07-24T06:42:07.990Z,90
2017-07-24T06:43:08.696Z,80
2017-07-24T06:44:09.400Z,70
2017-07-24T06:45:10.357Z,65
2017-07-24T06:46:11.063Z,65
2017-07-24T06:47:11.774Z,65
2017-07-24T06:48:12.491Z,65
2017-07-24T06:49:13.199Z,70
2017-07-24T06:50:14.155Z,75
2017-07-24T06:51:14.860Z,80
2017-07-24T06:52:15.565Z,90
2017-07-24T06:53:16.266Z,105
2017-07-24T06:54:16.969Z,115
2017-07-24T06:55:17.922Z,120
2017-07-24T06:56:18.629Z,100
2017-07-24T06:57:19.335Z,95
2017-07-24T06:58:20.044Z,90
2017-07-24T06:59:20.748Z,90
2017-07-24T07:00:21.701Z,85
2017-07-24T07:01:22.403Z,80
2017-07-24T07:02:23.107Z,85
2017-07-24T07:03:23.816Z,100
2017-07-24T07:04:24.526Z,125
2017-07-24T07:05:25.492Z,155
2017-07-24T07:06:26.198Z,180
2017-07-24T07:07:26.902Z,185
2017-07-24T07:08:27.608Z,185
2017-07-24T07:09:28.309Z,180
2017-07-24T07:10:29.265Z,170
2017-07-24T07:11:29.972Z,160
2017-07-24T07:12:30.674Z,150
2017-07-24T07:13:31.382Z,135
2017-07-24T07:14:32.088Z,125
2017-07-24T07:15:33.043Z,115
2017-07-24T07:16:33.753Z,110
2017-07-24T07:17:34.463Z,105
2017-07-24T07:18:35.179Z,105
2017-07-24T07:19:35.893Z,105
2017-07-24T07:20:36.851Z,110
2017-07-24T07:21:37.561Z,110
2017-07-24T07:22:38.269Z,115
2017-07-24T07:23:38.973Z,125
2017-07-24T07:24:39.685Z,145
2017-07-24T07:25:40.645Z,160
2017-07-24T07:26:41.348Z,165
2017-07-24T07:27:42.058Z,160
2017-07-24T07:28:42.787Z,160
2017-07-24T07:29:43.498Z,150
2017-07-24T07:30:44.456Z,135
2017-07-24T07:31:45.159Z,120
2017-07-24T07:32:45.867Z,105
2017-07-24T07:33:46.572Z,100
2017-07-24T07:34:47.279Z,95
2017-07-24T07:35:47.983Z,100
2017-07-24T07:36:48.687Z,110
2017-07-24T07:37:49.395Z,125
2017-07-24T07:38:50.104Z,145
2017-07-24T07:39:50.811Z,165
2017-07-24T07:40:51.764Z,180
2017-07-24T07:41:52.468Z,185
2017-07-24T07:42:53.168Z,185
2017-07-24T07:43:53.871Z,175
2017-07-24T07:44:54.575Z,170
2017-07-24T07:45:55.536Z,170
2017-07-24T07:46:56.251Z,175
2017-07-24T07:47:56.963Z,170
2017-07-24T07:48:57.668Z,170
2017-07-24T07:49:58.380Z,165
2017-07-24T07:50:59.350Z,155
2017-07-24T07:52:00.058Z,155
2017-07-24T07:53:00.766Z,170
2017-07-24T07:54:01.470Z,200
2017-07-24T07:55:02.174Z,225
2017-07-24T07:56:03.132Z,225
2017-07-24T07:57:03.837Z,225
2017-07-24T07:58:04.543Z,240
2017-07-24T07:59:05.249Z,255
2017-07-24T08:00:05.959Z,265
2017-07-24T08:01:06.920Z,275
2017-07-24T08:02:07.624Z,280
2017-07-24T08:03:08.332Z,280
2017-07-24T08:04:09.042Z,260
2017-07-24T08:05:09.749Z,235
2017-07-24T08:06:10.460Z,220
2017-07-24T08:07:11.173Z,220
2017-07-24T08:08:11.882Z,205
2017-07-24T08:09:12.589Z,155
2017-07-24T08:10:13.296Z,115
2017-07-24T08:11:14.259Z,95
2017-07-24T08:12:14.967Z,95
2017-07-24T08:13:15.675Z,110
2017-07-24T08:14:16.378Z,125
2017-07-24T08:15:17.090Z,160
2017-07-24T08:16:18.049Z,185
2017-07-24T08:17:18.754Z,175
2017-07-24T08:18:19.460Z,155
2017-07-24T08:19:20.172Z,140
2017-07-24T08:20:20.885Z,135
2017-07-24T08:21:21.841Z,140
2017-07-24T08:22:22.547Z,145
2017-07-24T08:23:23.260Z,155
2017-07-24T08:24:23.974Z,145
2017-07-24T08:25:24.684Z,135
2017-07-24T08:26:25.641Z,140
2017-07-24T08:27:26.350Z,155
2017-07-24T08:28:27.055Z,170
2017-07-24T08:29:27.765Z,180
2017-07-24T08:30:28.472Z,185
2017-07-24T08:31:29.435Z,175
2017-07-24T08:32:30.143Z,180
2017-07-24T08:33:30.856Z,185
2017-07-24T08:34:31.563Z,185
2017-07-24T08:35:32.275Z,185
2017-07-24T08:36:33.240Z,180
2017-07-24T08:37:33.948Z,180
2017-07-24T08:38:34.663Z,180
2017-07-24T08:39:35.370Z,180
2017-07-24T08:40:36.077Z,185
2017-07-24T08:41:37.034Z,185
2017-07-24T08:42:37.737Z,190
2017-07-24T08:43:38.453Z,195
2017-07-24T08:44:39.161Z,200
2017-07-24T08:45:39.871Z,200
2017-07-24T08:46:40.578Z,200
2017-07-24T08:47:41.296Z,195
2017-07-24T08:48:42.003Z,185
2017-07-24T08:49:42.708Z,180
2017-07-24T08:50:43.415Z,175
2017-07-24T08:51:44.376Z,175
2017-07-24T08:52:45.083Z,180
2017-07-24T08:53:45.791Z,175
2017-07-24T08:54:46.497Z,165
2017-07-24T08:55:47.209Z,155
2017-07-24T08:56:47.914Z,140
2017-07-24T08:57:48.622Z,140
2017-07-24T08:58:49.327Z,150
2017-07-24T08:59:50.037Z,155
2017-07-24T09:00:50.742Z,160
2017-07-24T09:01:51.704Z,150
2017-07-24T09:02:52.417Z,135
2017-07-24T09:03:53.124Z,125
2017-07-24T09:04:53.831Z,115
2017-07-24T09:05:54.540Z,105
2017-07-24T09:06:55.500Z,105
2017-07-24T09:07:56.205Z,115
2017-07-24T09:08:56.913Z,135
2017-07-24T09:09:57.628Z,140
2017-07-24T09:10:58.337Z,155
2017-07-24T09:11:59.293Z,155
2017-07-24T09:13:00.003Z,145
2017-07-24T09:14:00.670Z,145
2017-07-24T09:15:01.399Z,150
2017-07-24T09:16:02.121Z,150
2017-07-24T09:17:03.098Z,150
2017-07-24T09:18:03.812Z,140
2017-07-24T09:19:04.521Z,130
2017-07-24T09:20:05.240Z,130
2017-07-24T09:21:05.952Z,125
2017-07-24T09:22:06.907Z,155
2017-07-24T09:23:07.612Z,205
2017-07-24T09:24:08.319Z,225
2017-07-24T09:25:09.026Z,215
2017-07-24T09:26:09.736Z,210
2017-07-24T09:27:10.691Z,215
2017-07-24T09:28:11.394Z,225
2017-07-24T09:29:12.110Z,215
2017-07-24T09:30:12.822Z,210
2017-07-24T09:31:13.526Z,210
2017-07-24T09:32:14.478Z,210
2017-07-24T09:33:15.187Z,210
2017-07-24T09:34:15.904Z,200
2017-07-24T09:35:16.614Z,205
2017-07-24T09:36:17.325Z,180
2017-07-24T09:37:18.033Z,155
2017-07-24T09:38:18.737Z,130
2017-07-24T09:39:19.443Z,120
2017-07-24T09:40:20.152Z,120
2017-07-24T09:41:20.864Z,125
2017-07-24T09:42:21.819Z,125
2017-07-24T09:43:22.527Z,135
2017-07-24T09:44:23.231Z,155
2017-07-24T09:45:23.943Z,150
2017-07-24T09:46:24.654Z,130
2017-07-24T09:47:25.610Z,125
2017-07-24T09:48:26.317Z,125
2017-07-24T09:49:27.031Z,120
2017-07-24T09:50:27.738Z,130
2017-07-24T09:51:28.441Z,135
2017-07-24T09:52:29.398Z,135
2017-07-24T09:53:30.106Z,120
2017-07-24T09:54:30.812Z,115
2017-07-24T09:55:31.517Z,105
2017-07-24T09:56:32.229Z,120
2017-07-24T09:57:33.183Z,135
2017-07-24T09:58:33.898Z,150
2017-07-24T09:59:34.611Z,150
2017-07-24T10:00:35.315Z,160
2017-07-24T10:01:36.027Z,165
2017-07-24T10:02:36.987Z,170
2017-07-24T10:03:37.695Z,180
2017-07-24T10:04:38.400Z,165
2017-07-24T10:05:39.113Z,145
2017-07-24T10:06:39.820Z,140
2017-07-24T10:07:40.785Z,150
2017-07-24T10:08:41.488Z,165
2017-07-24T10:09:42.196Z,170
2017-07-24T10:10:42.898Z,165
2017-07-24T10:11:43.603Z,170
2017-07-24T10:12:44.560Z,170
2017-07-24T10:13:45.269Z,170
2017-07-24T10:14:45.976Z,170
2017-07-24T10:15:46.689Z,175
2017-07-24T10:16:47.399Z,185
2017-07-24T10:17:48.351Z,190
2017-07-24T10:18:49.062Z,180
2017-07-24T10:19:49.774Z,160
2017-07-24T10:20:50.479Z,180
2017-07-24T10:21:51.187Z,180
2017-07-24T10:22:52.143Z,155
2017-07-24T10:23:52.868Z,150
2017-07-24T10:24:53.572Z,165
2017-07-24T10:25:54.296Z,180
2017-07-24T10:26:55.011Z,200
2017-07-24T10:27:55.969Z,210
2017-07-24T10:28:56.686Z,200
2017-07-24T10:29:57.416Z,190
2017-07-24T10:30:58.122Z,190
2017-07-24T10:31:58.834Z,190
2017-07-24T10:32:59.788Z,185
2017-07-24T10:34:00.492Z,155
2017-07-24T10:35:01.195Z,165
2017-07-24T10:36:01.902Z,175
2017-07-24T10:37:02.611Z,185
2017-07-24T10:38:03.567Z,190
2017-07-24T10:39:04.281Z,165
2017-07-24T10:40:04.984Z,140
2017-07-24T10:41:05.685Z,130
2017-07-24T10:42:06.389Z,120
2017-07-24T10:43:07.345Z,120
2017-07-24T10:44:08.050Z,120
2017-07-24T10:45:08.757Z,120
2017-07-24T10:46:09.475Z,95
2017-07-24T10:47:10.183Z,180
2017-07-24T10:48:10.888Z,230
2017-07-24T10:49:11.612Z,220
2017-07-24T10:50:12.320Z,190
2017-07-24T10:51:13.021Z,140
2017-07-24T10:52:13.727Z,115
2017-07-24T10:53:14.684Z,135
2017-07-24T10:54:15.396Z,140
2017-07-24T10:55:16.101Z,190
2017-07-24T10:56:16.803Z,220
2017-07-24T10:57:17.524Z,235
2017-07-24T10:58:18.477Z,230
2017-07-24T10:59:19.190Z,210
2017-07-24T11:00:19.898Z,215
2017-07-24T11:01:20.602Z,230
2017-07-24T11:02:21.316Z,230
2017-07-24T11:03:22.271Z,240
2017-07-24T11:04:22.976Z,215
2017-07-24T11:05:23.680Z,180
2017-07-24T11:06:24.380Z,175
2017-07-24T11:07:25.084Z,150
2017-07-24T11:08:25.801Z,105
2017-07-24T11:09:26.506Z,80
2017-07-24T11:10:27.211Z,70
2017-07-24T11:11:27.922Z,85
2017-07-24T11:12:28.623Z,90
2017-07-24T11:13:29.577Z,100
2017-07-24T11:14:30.283Z,105
2017-07-24T11:15:30.998Z,110
2017-07-24T11:16:31.703Z,110
2017-07-24T11:17:32.410Z,115
2017-07-24T11:18:33.416Z,115
2017-07-24T11:19:34.119Z,115
2017-07-24T11:20:34.826Z,115
2017-07-24T11:21:35.536Z,110
2017-07-24T11:22:36.242Z,120
2017-07-24T11:23:36.954Z,125
2017-07-24T11:24:37.657Z,135
2017-07-24T11:25:38.363Z,145
2017-07-24T11:26:39.066Z,155
2017-07-24T11:27:39.774Z,155
2017-07-24T11:28:40.738Z,160
2017-07-24T11:29:41.445Z,160
2017-07-24T11:30:42.148Z,165
2017-07-24T11:31:42.851Z,165
2017-07-24T11:32:43.561Z,175
2017-07-24T11:33:44.511Z,170
2017-07-24T11:34:45.213Z,180
2017-07-24T11:35:45.919Z,175
2017-07-24T11:36:46.626Z,170
2017-07-24T11:37:47.333Z,150
2017-07-24T11:38:48.289Z,140
2017-07-24T11:39:48.999Z,135
2017-07-24T11:40:49.713Z,130
2017-07-24T11:41:50.424Z,125
2017-07-24T11:42:51.127Z,120
2017-07-24T11:43:52.080Z,130
2017-07-24T11:44:52.785Z,130
2017-07-24T11:45:53.491Z,135
2017-07-24T11:46:54.205Z,135
2017-07-24T11:47:54.910Z,135
2017-07-24T11:48:55.867Z,140
2017-07-24T11:49:56.569Z,155
2017-07-24T11:50:57.274Z,160
2017-07-24T11:51:57.977Z,170
2017-07-24T11:52:58.685Z,185
2017-07-24T11:53:59.640Z,180
2017-07-24T11:55:00.349Z,185
2017-07-24T11:56:01.062Z,190
2017-07-24T11:57:01.769Z,190
2017-07-24T11:58:02.488Z,195
2017-07-24T11:59:03.440Z,205
2017-07-24T12:00:04.145Z,205
2017-07-24T12:01:04.854Z,215
2017-07-24T12:02:05.556Z,220
2017-07-24T12:03:06.275Z,225
2017-07-24T12:04:06.979Z,225
2017-07-24T12:05:07.687Z,230
2017-07-24T12:06:08.388Z,225
2017-07-24T12:07:09.050Z,225
2017-07-24T12:08:09.799Z,225
2017-07-24T12:09:10.750Z,220
2017-07-24T12:10:11.460Z,190
2017-07-24T12:11:12.169Z,190
2017-07-24T12:12:12.875Z,205
2017-07-24T12:13:13.581Z,215
2017-07-24T12:14:14.538Z,230
2017-07-24T12:15:15.246Z,235
2017-07-24T12:16:15.949Z,240
2017-07-24T12:17:16.651Z,240
2017-07-24T12:18:17.354Z,220
2017-07-24T12:19:18.058Z,180
2017-07-24T12:20:18.764Z,175
2017-07-24T12:21:19.469Z,130
2017-07-24T12:22:20.173Z,95
2017-07-24T12:23:20.877Z,100
2017-07-24T12:24:21.593Z,135
2017-07-24T12:25:22.298Z,170
2017-07-24T12:26:23.005Z,180
2017-07-24T12:27:23.712Z,165
2017-07-24T12:28:24.421Z,220
2017-07-24T12:29:25.376Z,265
2017-07-24T12:30:26.084Z,300
2017-07-24T12:31:26.796Z,300
2017-07-24T12:32:27.501Z,270
2017-07-24T12:33:28.204Z,240
2017-07-24T12:34:29.163Z,230
2017-07-24T12:35:29.867Z,230
2017-07-24T12:36:30.571Z,250
2017-07-24T12:37:31.277Z,280
2017-07-24T12:38:31.984Z,260
2017-07-24T12:39:32.690Z,235
2017-07-24T12:40:33.398Z,260
2017-07-24T12:41:34.105Z,300
2017-07-24T12:42:34.813Z,300
2017-07-24T12:43:35.528Z,305
2017-07-24T12:44:36.482Z,300
2017-07-24T12:45:37.186Z,280
2017-07-24T12:46:37.893Z,290
2017-07-24T12:47:38.605Z,305
2017-07-24T12:48:39.312Z,315
2017-07-24T12:49:40.269Z,280
2017-07-24T12:50:40.975Z,265
2017-07-24T12:51:41.686Z,245
2017-07-24T12:52:42.396Z,275
2017-07-24T12:53:43.101Z,285
2017-07-24T12:54:44.053Z,275
2017-07-24T12:55:44.761Z,235
2017-07-24T12:56:45.475Z,205
2017-07-24T12:57:46.190Z,240
2017-07-24T12:58:46.896Z,250
2017-07-24T12:59:47.601Z,230
2017-07-24T13:00:48.303Z,235
2017-07-24T13:01:49.011Z,245
2017-07-24T13:02:49.718Z,290
2017-07-24T13:03:50.419Z,285
2017-07-24T13:04:51.379Z,310
2017-07-24T13:05:52.087Z,330
2017-07-24T13:06:52.796Z,355
2017-07-24T13:07:53.507Z,350
2017-07-24T13:08:54.217Z,340
2017-07-24T13:09:55.169Z,310
2017-07-24T13:10:55.894Z,285
2017-07-24T13:11:56.607Z,240
2017-07-24T13:12:57.320Z,220
2017-07-24T13:13:58.027Z,205
2017-07-24T13:14:58.989Z,190
2017-07-24T13:15:59.698Z,210
2017-07-24T13:17:00.401Z,225
2017-07-24T13:18:01.120Z,250
2017-07-24T13:19:01.824Z,290
2017-07-24T13:20:02.787Z,285
2017-07-24T13:21:03.503Z,255
2017-07-24T13:22:04.210Z,225
2017-07-24T13:23:04.920Z,175
2017-07-24T13:24:05.624Z,160
2017-07-24T13:25:06.578Z,145
2017-07-24T13:26:07.280Z,130
2017-07-24T13:27:07.987Z,130
2017-07-24T13:28:08.693Z,140
2017-07-24T13:29:09.403Z,140
2017-07-24T13:30:10.355Z,140
2017-07-24T13:31:11.061Z,140
2017-07-24T13:32:11.766Z,150
2017-07-24T13:33:12.467Z,200
2017-07-24T13:34:13.165Z,215
2017-07-24T13:35:14.116Z,280
2017-07-24T13:36:14.822Z,315
2017-07-24T13:37:15.528Z,265
2017-07-24T13:38:16.249Z,240
2017-07-24T13:39:16.960Z,240
2017-07-24T13:40:17.922Z,325
2017-07-24T13:41:18.629Z,400
2017-07-24T13:42:19.336Z,390
2017-07-24T13:43:20.046Z,425
2017-07-24T13:44:20.750Z,460
2017-07-24T13:45:21.713Z,430
2017-07-24T13:46:22.421Z,400
2017-07-24T13:47:23.129Z,465
2017-07-24T13:48:23.839Z,500
2017-07-24T13:49:24.543Z,460
2017-07-24T13:50:25.497Z,435
2017-07-24T13:51:26.209Z,365
2017-07-24T13:52:26.920Z,270
2017-07-24T13:53:27.632Z,215
2017-07-24T13:54:28.338Z,200
2017-07-24T13:55:29.295Z,175
2017-07-24T13:56:30.002Z,165
2017-07-24T13:57:30.716Z,185
2017-07-24T13:58:31.423Z,145
2017-07-24T13:59:32.130Z,105
2017-07-24T14:00:33.088Z,95
2017-07-24T14:01:33.792Z,120
2017-07-24T14:02:34.509Z,175
2017-07-24T14:03:35.218Z,335
2017-07-24T14:04:35.928Z,265
2017-07-24T14:05:36.889Z,215
2017-07-24T14:06:37.597Z,205
2017-07-24T14:07:38.301Z,255
2017-07-24T14:08:39.005Z,285
2017-07-24T14:09:39.708Z,280
2017-07-24T14:10:40.411Z,340
2017-07-24T14:11:41.124Z,405
2017-07-24T14:12:41.833Z,285
2017-07-24T14:13:42.538Z,195
2017-07-24T14:14:43.239Z,150
2017-07-24T14:15:44.192Z,130
2017-07-24T14:16:44.904Z,135